createdAt,value
2018-03-08T00:00:42.567Z,12.23
2018-03-08T00:03:10.034Z,13.32
2018-03-08T00:05:37.522Z,13.20
2018-03-08T00:08:05.096Z,15.07
2018-03-08T00:10:32.552Z,15.35
2018-03-08T00:13:00.016Z,12.00
2018-03-08T00:15:27.496Z,16.42
2018-03-08T00:17:54.967Z,16.25
2018-03-08T00:20:22.439Z,18.87
2018-03-08T00:22:49.920Z,16.55
2018-03-08T00:25:17.380Z,16.80
2018-03-08T00:27:44.844Z,17.17
2018-03-08T00:30:12.303Z,19.40
2018-03-08T00:32:39.759Z,16.55
2018-03-08T00:35:07.256Z,18.87
2018-03-08T00:37:34.717Z,18.45
2018-03-08T00:40:02.196Z,18.55
2018-03-08T00:42:29.769Z,15.63
2018-03-08T00:44:57.332Z,14.23
2018-03-08T00:47:24.809Z,16.83
2018-03-08T00:49:52.279Z,14.68
2018-03-08T00:52:19.856Z,16.48
2018-03-08T00:54:47.311Z,18.35
2018-03-08T00:57:14.776Z,15.70
2018-03-08T00:59:42.240Z,14.73
2018-03-08T01:02:09.728Z,16.80
2018-03-08T01:04:37.207Z,17.33
2018-03-08T01:07:04.672Z,14.55
2018-03-08T01:09:32.128Z,15.73
2018-03-08T01:11:59.591Z,15.32
2018-03-08T01:14:27.053Z,14.38
2018-03-08T01:16:54.520Z,18.37
2018-03-08T01:19:21.984Z,19.65
2018-03-08T01:21:49.461Z,15.68
2018-03-08T01:24:16.927Z,18.05
2018-03-08T01:26:44.394Z,17.65
2018-03-08T01:29:11.896Z,18.05
2018-03-08T01:31:39.356Z,18.77
2018-03-08T01:34:06.824Z,15.75
2018-03-08T01:36:34.292Z,19.00
2018-03-08T01:39:01.752Z,16.65
2018-03-08T01:41:29.215Z,17.27
2018-03-08T01:43:56.709Z,19.20
2018-03-08T01:46:24.188Z,13.80
2018-03-08T01:48:51.748Z,15.35
2018-03-08T01:51:19.220Z,15.98
2018-03-08T01:53:46.796Z,13.50
2018-03-08T01:56:14.371Z,15.20
2018-03-08T01:58:41.936Z,16.00
2018-03-08T02:01:09.404Z,14.65
2018-03-08T02:03:36.976Z,15.60
2018-03-08T02:06:04.437Z,13.02
2018-03-08T02:08:31.911Z,15.25
2018-03-08T02:10:59.376Z,17.50
2018-03-08T02:13:26.836Z,16.30
2018-03-08T02:15:54.304Z,18.20
2018-03-08T02:18:21.773Z,14.80
2018-03-08T02:20:49.281Z,15.35
2018-03-08T02:23:16.836Z,14.18
2018-03-08T02:25:44.292Z,16.45
2018-03-08T02:28:11.756Z,17.42
2018-03-08T02:30:39.241Z,16.10
2018-03-08T02:33:06.696Z,19.02
2018-03-08T02:35:34.146Z,19.20
2018-03-08T02:38:01.613Z,20.33
2018-03-08T02:40:29.116Z,21.30
2018-03-08T02:42:56.594Z,17.15
2018-03-08T02:45:24.057Z,24.45
2018-03-08T02:47:51.523Z,24.63
2018-03-08T02:50:18.980Z,25.50
2018-03-08T02:52:46.448Z,26.15
2018-03-08T02:55:13.908Z,25.52
2018-03-08T02:57:41.384Z,27.48
2018-03-08T03:00:08.876Z,27.87
2018-03-08T03:02:36.329Z,29.27
2018-03-08T03:05:03.797Z,30.37
2018-03-08T03:07:31.260Z,32.10
2018-03-08T03:09:58.748Z,33.05
2018-03-08T03:12:26.203Z,33.15
2018-03-08T03:14:53.667Z,36.50
2018-03-08T03:17:21.124Z,34.97
2018-03-08T03:19:48.644Z,35.10
2018-03-08T03:22:16.200Z,39.70
2018-03-08T03:24:43.660Z,35.92
2018-03-08T03:27:11.123Z,37.95
2018-03-08T03:29:38.611Z,38.90
2018-03-08T03:32:06.102Z,39.40
2018-03-08T03:34:33.568Z,38.47
2018-03-08T03:37:01.027Z,39.75
2018-03-08T03:39:28.485Z,40.60
2018-03-08T03:41:55.960Z,41.70
2018-03-08T03:44:23.415Z,39.58
2018-03-08T03:46:50.871Z,39.97
2018-03-08T03:49:18.339Z,39.13
2018-03-08T03:51:45.795Z,36.50
2018-03-08T03:54:13.516Z,39.88
2018-03-08T03:56:41.084Z,38.25
2018-03-08T03:59:08.546Z,36.78
2018-03-08T04:01:36.000Z,36.70
2018-03-08T04:04:03.481Z,37.85
2018-03-08T04:06:30.940Z,37.15
2018-03-08T04:08:58.395Z,37.67
2018-03-08T04:11:25.865Z,38.78
2018-03-08T04:13:53.328Z,36.00
2018-03-08T04:16:20.840Z,38.05
2018-03-08T04:18:48.413Z,36.40
2018-03-08T04:21:15.864Z,34.47
2018-03-08T04:23:43.324Z,29.80
2018-03-08T04:26:10.796Z,29.17
2018-03-08T04:28:38.252Z,26.90
2018-03-08T04:31:05.756Z,22.60
2018-03-08T04:33:33.224Z,28.08
2018-03-08T04:36:00.696Z,27.67
2018-03-08T04:38:28.177Z,31.08
2018-03-08T04:40:55.645Z,30.48
2018-03-08T04:43:23.215Z,31.25
2018-03-08T04:45:50.672Z,29.70
2018-03-08T04:48:18.132Z,27.25
2018-03-08T04:50:45.608Z,28.98
2018-03-08T04:53:13.088Z,31.12
2018-03-08T04:55:40.548Z,28.00
2018-03-08T04:58:08.028Z,28.45
2018-03-08T05:00:35.496Z,28.33
2018-03-08T05:03:02.981Z,25.95
2018-03-08T05:05:30.452Z,26.80
2018-03-08T05:07:58.013Z,25.35
2018-03-08T05:10:25.467Z,24.70
2018-03-08T05:12:54.550Z,25.62
2018-03-08T05:15:22.099Z,23.92
2018-03-08T05:17:50.344Z,25.25
2018-03-08T05:20:17.915Z,24.67
2018-03-08T05:22:45.385Z,23.87
2018-03-08T05:25:12.838Z,23.20
2018-03-08T05:27:40.302Z,22.08
2018-03-08T05:30:07.792Z,20.70
2018-03-08T05:32:35.261Z,17.73
2018-03-08T05:35:02.727Z,21.67
2018-03-08T05:37:30.304Z,19.00
2018-03-08T05:39:57.756Z,20.48
2018-03-08T05:42:25.217Z,19.75
2018-03-08T05:44:52.685Z,17.90
2018-03-08T05:47:20.146Z,20.00
2018-03-08T05:49:47.617Z,18.60
2018-03-08T05:52:15.064Z,16.90
2018-03-08T05:54:42.530Z,16.70
2018-03-08T05:57:10.880Z,17.70
2018-03-08T05:59:38.345Z,16.52
2018-03-08T06:02:05.813Z,16.40
2018-03-08T06:04:34.047Z,14.95
2018-03-08T06:07:02.276Z,15.75
2018-03-08T06:09:29.741Z,14.95
2018-03-08T06:11:57.238Z,14.15
2018-03-08T06:14:24.700Z,12.77
2018-03-08T06:16:52.183Z,13.57
2018-03-08T06:19:19.797Z,15.50
2018-03-08T06:21:47.313Z,15.20
2018-03-08T06:24:14.843Z,15.73
2018-03-08T06:26:42.353Z,17.33
2018-03-08T06:29:09.918Z,17.05
2018-03-08T06:31:37.400Z,18.05
2018-03-08T06:34:04.872Z,17.67
2018-03-08T06:36:32.333Z,18.50
2018-03-08T06:38:59.856Z,17.62
2018-03-08T06:41:27.372Z,18.12
2018-03-08T06:43:54.841Z,18.05
2018-03-08T06:46:22.419Z,19.67
2018-03-08T06:48:49.943Z,12.32
2018-03-08T06:51:17.406Z,12.90
2018-03-08T06:53:45.646Z,11.20
2018-03-08T06:56:13.097Z,8.75
2018-03-08T06:58:40.695Z,8.60
2018-03-08T07:01:08.160Z,7.65
2018-03-08T07:03:35.619Z,9.10
2018-03-08T07:06:03.096Z,7.25
2018-03-08T07:08:30.552Z,6.72
2018-03-08T07:10:58.021Z,8.57
2018-03-08T07:13:25.472Z,7.32
2018-03-08T07:15:52.976Z,7.32
2018-03-08T07:18:20.440Z,7.45
2018-03-08T07:20:47.891Z,7.90
2018-03-08T07:23:15.362Z,6.72
2018-03-08T07:25:42.820Z,7.20
2018-03-08T07:28:10.280Z,7.30
2018-03-08T07:30:37.744Z,6.15
2018-03-08T07:33:05.200Z,6.72
2018-03-08T07:35:33.442Z,8.18
2018-03-08T07:38:00.926Z,7.70
2018-03-08T07:40:28.379Z,7.30
2018-03-08T07:42:55.964Z,7.47
2018-03-08T07:45:23.436Z,6.10
2018-03-08T07:47:51.002Z,6.90
2018-03-08T07:50:18.478Z,6.43
2018-03-08T07:52:45.943Z,6.60
2018-03-08T07:55:13.409Z,6.80
2018-03-08T07:57:40.856Z,6.40
2018-03-08T08:00:08.321Z,6.80
2018-03-08T08:02:35.768Z,6.70
2018-03-08T08:05:15.217Z,6.53
2018-03-08T08:07:55.557Z,6.60
2018-03-08T08:10:23.111Z,6.40
2018-03-08T08:12:50.588Z,6.78
2018-03-08T08:15:18.052Z,7.20
2018-03-08T08:17:45.620Z,7.12
2018-03-08T08:20:13.096Z,7.03
2018-03-08T08:22:40.664Z,7.37
2018-03-08T08:25:08.116Z,7.50
2018-03-08T08:27:35.595Z,7.45
2018-03-08T08:30:03.068Z,8.07
2018-03-08T08:32:30.537Z,7.50
2018-03-08T08:34:57.993Z,8.07
2018-03-08T08:37:25.456Z,8.10
2018-03-08T08:39:52.928Z,8.20
2018-03-08T08:42:20.384Z,8.93
2018-03-08T08:44:47.840Z,8.57
2018-03-08T08:47:15.352Z,8.45
2018-03-08T08:49:42.928Z,8.60
2018-03-08T08:52:10.380Z,7.93
2018-03-08T08:54:37.931Z,9.00
2018-03-08T08:57:05.444Z,8.80
2018-03-08T08:59:32.908Z,8.60
2018-03-08T09:02:00.480Z,8.60
2018-03-08T09:04:27.941Z,8.55
2018-03-08T09:06:55.437Z,8.02
2018-03-08T09:09:22.900Z,9.23
2018-03-08T09:11:50.380Z,8.15
2018-03-08T09:14:17.899Z,9.40
2018-03-08T09:16:46.099Z,8.60
2018-03-08T09:19:13.573Z,8.70
2018-03-08T09:21:41.043Z,8.88
2018-03-08T09:24:08.517Z,8.70
2018-03-08T09:26:36.108Z,9.02
2018-03-08T09:29:03.629Z,8.82
2018-03-08T09:31:31.092Z,8.40
2018-03-08T09:33:58.611Z,8.00
2018-03-08T09:36:26.090Z,9.13
2018-03-08T09:38:53.568Z,8.30
2018-03-08T09:41:21.136Z,8.45
2018-03-08T09:43:48.645Z,7.72
2018-03-08T09:46:16.064Z,7.90
2018-03-08T09:48:43.536Z,8.90
2018-03-08T09:51:11.002Z,8.30
2018-03-08T09:53:38.468Z,8.25
2018-03-08T09:56:05.940Z,7.87
2018-03-08T09:58:33.395Z,8.57
2018-03-08T10:01:00.872Z,7.70
2018-03-08T10:03:28.447Z,7.40
2018-03-08T10:05:55.917Z,8.40
2018-03-08T10:08:23.489Z,7.53
2018-03-08T10:10:50.952Z,7.53
2018-03-08T10:13:18.424Z,7.50
2018-03-08T10:15:45.903Z,7.25
2018-03-08T10:18:13.371Z,7.40
2018-03-08T10:20:40.939Z,8.30
2018-03-08T10:23:08.396Z,7.90
2018-03-08T10:25:35.872Z,8.10
2018-03-08T10:28:03.358Z,7.20
2018-03-08T10:30:30.829Z,6.78
2018-03-08T10:32:58.305Z,6.85
2018-03-08T10:35:25.768Z,6.90
2018-03-08T10:37:53.248Z,6.15
2018-03-08T10:40:20.807Z,7.12
2018-03-08T10:42:48.276Z,6.35
2018-03-08T10:45:15.943Z,6.00
2018-03-08T10:47:43.411Z,6.20
2018-03-08T10:50:10.884Z,6.10
2018-03-08T10:52:38.351Z,6.00
2018-03-08T10:55:05.927Z,5.90
2018-03-08T10:57:33.388Z,6.10
2018-03-08T11:00:00.864Z,5.47
2018-03-08T11:02:34.073Z,6.17
2018-03-08T11:05:01.537Z,6.10
2018-03-08T11:07:28.996Z,6.93
2018-03-08T11:09:56.473Z,6.10
2018-03-08T11:12:23.924Z,5.68
2018-03-08T11:14:51.376Z,6.45
2018-03-08T11:17:18.839Z,6.62
2018-03-08T11:19:46.348Z,6.53
2018-03-08T11:22:13.923Z,6.35
2018-03-08T11:24:41.392Z,6.50
2018-03-08T11:27:08.871Z,6.78
2018-03-08T11:29:36.346Z,7.00
2018-03-08T11:32:03.907Z,7.40
2018-03-08T11:34:31.389Z,6.90
2018-03-08T11:36:58.865Z,6.60
2018-03-08T11:39:26.329Z,6.85
2018-03-08T11:41:53.792Z,6.80
2018-03-08T11:44:21.349Z,6.80
2018-03-08T11:46:48.809Z,6.93
2018-03-08T11:49:16.272Z,6.07
2018-03-08T11:51:43.744Z,6.32
2018-03-08T11:54:11.233Z,6.18
2018-03-08T11:56:38.690Z,6.50
2018-03-08T11:59:06.170Z,5.70
2018-03-08T12:01:33.740Z,5.50
2018-03-08T12:04:01.212Z,6.00
2018-03-08T12:06:28.676Z,6.30
2018-03-08T12:08:56.146Z,5.50
2018-03-08T12:11:23.732Z,6.30
2018-03-08T12:13:51.197Z,5.68
2018-03-08T12:16:18.648Z,5.70
2018-03-08T12:18:46.112Z,5.22
2018-03-08T12:21:13.591Z,5.40
2018-03-08T12:23:41.051Z,5.40
2018-03-08T12:26:08.509Z,4.72
2018-03-08T12:28:35.979Z,4.60
2018-03-08T12:31:03.443Z,5.07
2018-03-08T12:33:30.908Z,4.93
2018-03-08T12:35:58.380Z,4.75
2018-03-08T12:38:25.850Z,4.50
2018-03-08T12:40:53.316Z,4.70
2018-03-08T12:43:20.772Z,4.20
2018-03-08T12:45:48.484Z,4.33
2018-03-08T12:48:15.940Z,4.53
2018-03-08T12:50:43.408Z,4.70
2018-03-08T12:53:10.860Z,4.37
2018-03-08T12:55:38.324Z,4.35
2018-03-08T12:58:05.785Z,4.53
2018-03-08T13:00:34.009Z,4.10
2018-03-08T13:03:01.483Z,4.47
2018-03-08T13:05:28.972Z,4.40
2018-03-08T13:07:56.436Z,4.57
2018-03-08T13:10:23.913Z,4.00
2018-03-08T13:12:51.388Z,4.10
2018-03-08T13:15:18.849Z,3.83
2018-03-08T13:17:46.320Z,4.00
2018-03-08T13:20:13.772Z,4.40
2018-03-08T13:22:41.229Z,4.60
2018-03-08T13:25:08.685Z,4.10
2018-03-08T13:27:36.136Z,4.60
2018-03-08T13:30:04.362Z,4.87
2018-03-08T13:32:31.825Z,4.10
2018-03-08T13:34:59.276Z,4.82
2018-03-08T13:37:26.736Z,4.97
2018-03-08T13:39:54.188Z,4.45
2018-03-08T13:42:22.403Z,3.55
2018-03-08T13:44:49.897Z,4.28
2018-03-08T13:47:17.344Z,3.55
2018-03-08T13:49:44.804Z,3.40
2018-03-08T13:52:13.026Z,3.70
2018-03-08T13:54:40.478Z,3.28
2018-03-08T13:57:07.940Z,3.58
2018-03-08T13:59:35.404Z,3.90
2018-03-08T14:02:02.860Z,3.65
2018-03-08T14:04:31.080Z,3.87
2018-03-08T14:06:58.532Z,4.10
2018-03-08T14:09:25.988Z,4.20
2018-03-08T14:11:54.209Z,4.22
2018-03-08T14:14:21.660Z,4.32
2018-03-08T14:16:49.127Z,4.55
2018-03-08T14:19:16.590Z,4.75
2018-03-08T14:21:44.046Z,5.30
2018-03-08T14:24:11.511Z,3.58
2018-03-08T14:26:39.744Z,4.30
2018-03-08T14:29:07.214Z,4.87
2018-03-08T14:31:34.720Z,4.70
2018-03-08T14:34:02.176Z,3.97
2018-03-08T14:36:29.632Z,5.05
2018-03-08T14:38:57.084Z,3.75
2018-03-08T14:41:24.557Z,4.20
2018-03-08T14:43:52.008Z,4.45
2018-03-08T14:46:19.452Z,3.75
2018-03-08T14:48:47.683Z,4.85
2018-03-08T14:51:15.140Z,5.22
2018-03-08T14:53:42.612Z,5.53
2018-03-08T14:56:10.057Z,5.03
2018-03-08T14:58:38.285Z,5.40
2018-03-08T15:01:05.758Z,5.87
2018-03-08T15:03:33.206Z,5.35
2018-03-08T15:06:00.662Z,5.62
2018-03-08T15:08:28.117Z,4.90
2018-03-08T15:10:56.347Z,4.50
2018-03-08T15:13:23.799Z,5.05
2018-03-08T15:15:51.264Z,4.10
2018-03-08T15:18:18.708Z,4.53
2018-03-08T15:20:46.932Z,4.90
2018-03-08T15:23:14.384Z,5.00
2018-03-08T15:25:41.863Z,5.75
2018-03-08T15:28:09.328Z,4.60
2018-03-08T15:30:36.783Z,5.43
2018-03-08T15:33:05.008Z,4.70
2018-03-08T15:35:32.456Z,5.20
2018-03-08T15:37:59.962Z,4.40
2018-03-08T15:40:27.421Z,5.80
2018-03-08T15:45:22.663Z,3.67
2018-03-08T16:45:20.081Z,1.40
2018-03-08T16:47:47.540Z,2.10
2018-03-08T16:50:14.989Z,1.67
